createdAt,value
2022-10-15T00:00:01.501Z,988.63
2022-10-15T00:00:11.764Z,988.63
2022-10-15T00:00:22.022Z,988.62
2022-10-15T00:00:32.285Z,988.62
2022-10-15T00:00:42.547Z,988.62
2022-10-15T00:00:52.809Z,988.62
2022-10-15T00:01:03.115Z,988.61
2022-10-15T00:01:13.383Z,988.61
2022-10-15T00:01:23.752Z,988.60
2022-10-15T00:01:34.200Z,988.60
2022-10-15T00:01:44.503Z,988.59
2022-10-15T00:01:54.813Z,988.60
2022-10-15T00:02:05.075Z,988.59
2022-10-15T00:02:15.345Z,988.59
2022-10-15T00:02:25.615Z,988.59
2022-10-15T00:02:35.877Z,988.59
2022-10-15T00:02:46.139Z,988.58
2022-10-15T00:02:56.402Z,988.58
2022-10-15T00:03:06.665Z,988.58
2022-10-15T00:03:16.927Z,988.58
2022-10-15T00:03:27.188Z,988.58
2022-10-15T00:03:37.451Z,988.57
2022-10-15T00:03:47.750Z,988.57
2022-10-15T00:03:58.057Z,988.57
2022-10-15T00:04:08.287Z,988.56
2022-10-15T00:04:18.549Z,988.56
2022-10-15T00:04:28.809Z,988.56
2022-10-15T00:04:39.073Z,988.56
2022-10-15T00:04:49.364Z,988.56
2022-10-15T00:04:59.631Z,988.55
2022-10-15T00:05:09.888Z,988.54
2022-10-15T00:05:20.157Z,988.54
2022-10-15T00:05:30.413Z,988.54
2022-10-15T00:05:40.678Z,988.54
2022-10-15T00:05:50.943Z,988.53
2022-10-15T00:06:01.202Z,988.53
2022-10-15T00:06:11.463Z,988.53
2022-10-15T00:06:21.741Z,988.53
2022-10-15T00:06:31.988Z,988.53
2022-10-15T00:06:42.250Z,988.53
2022-10-15T00:06:52.511Z,988.52
2022-10-15T00:07:02.783Z,988.51
2022-10-15T00:07:13.035Z,988.51
2022-10-15T00:07:23.644Z,988.52
2022-10-15T00:07:33.659Z,988.52
2022-10-15T00:07:43.923Z,988.52
2022-10-15T00:07:54.183Z,988.52
2022-10-15T00:08:04.445Z,988.53
2022-10-15T00:08:14.714Z,988.53
2022-10-15T00:08:24.977Z,988.54
2022-10-15T00:08:35.245Z,988.54
2022-10-15T00:08:45.502Z,988.54
2022-10-15T00:08:55.764Z,988.55
2022-10-15T00:09:06.027Z,988.56
2022-10-15T00:09:16.289Z,988.56
2022-10-15T00:09:26.550Z,988.57
2022-10-15T00:09:36.812Z,988.57
2022-10-15T00:09:47.075Z,988.56
2022-10-15T00:09:57.336Z,988.57
2022-10-15T00:10:07.609Z,988.58
2022-10-15T00:10:17.870Z,988.58
2022-10-15T00:10:28.132Z,988.58
2022-10-15T00:10:38.395Z,988.59
2022-10-15T00:10:48.658Z,988.59
2022-10-15T00:10:58.916Z,988.59
2022-10-15T00:11:09.184Z,988.59
2022-10-15T00:11:19.439Z,988.59
2022-10-15T00:11:29.702Z,988.59
2022-10-15T00:11:39.964Z,988.59
2022-10-15T00:11:50.226Z,988.59
2022-10-15T00:12:00.486Z,988.60
2022-10-15T00:12:10.750Z,988.59
2022-10-15T00:12:21.009Z,988.59
2022-10-15T00:12:31.286Z,988.59
2022-10-15T00:12:41.546Z,988.59
2022-10-15T00:12:51.913Z,988.59
2022-10-15T00:13:12.474Z,988.59
2022-10-15T00:13:22.734Z,988.59
2022-10-15T00:13:32.996Z,988.60
2022-10-15T00:13:43.256Z,988.60
2022-10-15T00:13:53.519Z,988.59
2022-10-15T00:14:03.782Z,988.59
2022-10-15T00:14:14.045Z,988.59
2022-10-15T00:14:24.303Z,988.60
2022-10-15T00:14:34.570Z,988.60
2022-10-15T00:14:44.833Z,988.61
2022-10-15T00:14:55.095Z,988.60
2022-10-15T00:15:05.358Z,988.60
2022-10-15T00:15:15.618Z,988.61
2022-10-15T00:15:25.881Z,988.62
2022-10-15T00:15:36.143Z,988.61
2022-10-15T00:15:46.406Z,988.61
2022-10-15T00:15:56.666Z,988.61
2022-10-15T00:16:06.928Z,988.61
2022-10-15T00:16:17.190Z,988.61
2022-10-15T00:16:27.451Z,988.61
2022-10-15T00:16:37.714Z,988.60
2022-10-15T00:16:47.975Z,988.60
2022-10-15T00:16:58.238Z,988.60
2022-10-15T00:17:08.499Z,988.59
2022-10-15T00:17:18.760Z,988.59
2022-10-15T00:17:29.034Z,988.58
2022-10-15T00:17:39.296Z,988.58
2022-10-15T00:17:49.561Z,988.57
2022-10-15T00:17:59.825Z,988.57
2022-10-15T00:18:10.080Z,988.57
2022-10-15T00:18:20.342Z,988.56
2022-10-15T00:18:30.604Z,988.56
2022-10-15T00:18:40.868Z,988.55
2022-10-15T00:18:51.129Z,988.55
2022-10-15T00:19:01.394Z,988.55
2022-10-15T00:19:11.655Z,988.55
2022-10-15T00:19:21.915Z,988.54
2022-10-15T00:19:32.180Z,988.54
2022-10-15T00:19:42.439Z,988.53
2022-10-15T00:19:52.700Z,988.53
2022-10-15T00:20:02.962Z,988.53
2022-10-15T00:20:13.225Z,988.53
2022-10-15T00:20:23.486Z,988.53
2022-10-15T00:20:33.747Z,988.52
2022-10-15T00:20:44.011Z,988.52
2022-10-15T00:20:54.273Z,988.51
2022-10-15T00:21:04.537Z,988.51
2022-10-15T00:21:14.799Z,988.50
2022-10-15T00:21:25.061Z,988.51
2022-10-15T00:21:35.322Z,988.50
2022-10-15T00:21:45.584Z,988.49
2022-10-15T00:21:55.923Z,988.49
2022-10-15T00:22:06.162Z,988.49
2022-10-15T00:22:16.422Z,988.47
2022-10-15T00:22:26.725Z,988.47
2022-10-15T00:22:36.972Z,988.47
2022-10-15T00:22:47.234Z,988.47
2022-10-15T00:22:57.494Z,988.47
2022-10-15T00:23:07.758Z,988.45
2022-10-15T00:23:18.018Z,988.45
2022-10-15T00:23:28.239Z,988.45
2022-10-15T00:23:38.501Z,988.44
2022-10-15T00:23:48.764Z,988.44
2022-10-15T00:23:59.024Z,988.43
2022-10-15T00:24:09.287Z,988.43
2022-10-15T00:24:19.548Z,988.43
2022-10-15T00:24:29.811Z,988.42
2022-10-15T00:24:40.074Z,988.42
2022-10-15T00:24:50.336Z,988.42
2022-10-15T00:25:00.598Z,988.42
2022-10-15T00:25:10.860Z,988.42
2022-10-15T00:25:21.123Z,988.41
2022-10-15T00:25:31.385Z,988.41
2022-10-15T00:25:41.649Z,988.41
2022-10-15T00:25:51.909Z,988.40
2022-10-15T00:26:02.169Z,988.40
2022-10-15T00:26:15.962Z,988.40
2022-10-15T00:26:22.769Z,988.41
2022-10-15T00:26:33.031Z,988.40
2022-10-15T00:26:43.294Z,988.40
2022-10-15T00:26:53.557Z,988.39
2022-10-15T00:27:03.819Z,988.39
2022-10-15T00:27:14.080Z,988.38
2022-10-15T00:27:24.342Z,988.38
2022-10-15T00:27:34.617Z,988.38
2022-10-15T00:27:44.879Z,988.37
2022-10-15T00:27:55.143Z,988.36
2022-10-15T00:28:05.404Z,988.36
2022-10-15T00:28:15.727Z,988.36
2022-10-15T00:28:28.493Z,988.36
2022-10-15T00:28:36.456Z,988.35
2022-10-15T00:28:46.760Z,988.35
2022-10-15T00:28:57.027Z,988.34
2022-10-15T00:29:07.351Z,988.34
2022-10-15T00:29:17.584Z,988.34
2022-10-15T00:29:27.845Z,988.33
2022-10-15T00:29:38.108Z,988.33
2022-10-15T00:29:48.368Z,988.33
2022-10-15T00:29:58.632Z,988.34
2022-10-15T00:30:08.892Z,988.33
2022-10-15T00:30:19.155Z,988.33
2022-10-15T00:30:29.419Z,988.33
2022-10-15T00:30:39.679Z,988.33
2022-10-15T00:30:49.941Z,988.33
2022-10-15T00:31:00.260Z,988.34
2022-10-15T00:31:10.508Z,988.34
2022-10-15T00:31:20.770Z,988.34
2022-10-15T00:31:31.032Z,988.35
2022-10-15T00:31:41.294Z,988.36
2022-10-15T00:31:51.554Z,988.36
2022-10-15T00:32:01.818Z,988.36
2022-10-15T00:32:12.092Z,988.37
2022-10-15T00:32:22.609Z,988.38
2022-10-15T00:32:32.751Z,988.39
2022-10-15T00:32:43.014Z,988.40
2022-10-15T00:32:53.349Z,988.40
2022-10-15T00:33:03.612Z,988.41
2022-10-15T00:33:13.873Z,988.41
2022-10-15T00:33:24.135Z,988.42
2022-10-15T00:33:34.395Z,988.42
2022-10-15T00:33:44.660Z,988.43
2022-10-15T00:33:54.923Z,988.43
2022-10-15T00:34:05.185Z,988.43
2022-10-15T00:34:15.447Z,988.44
2022-10-15T00:34:25.709Z,988.44
2022-10-15T00:34:35.970Z,988.44
2022-10-15T00:34:46.235Z,988.44
2022-10-15T00:34:56.496Z,988.44
2022-10-15T00:35:06.759Z,988.44
2022-10-15T00:35:17.020Z,988.44
2022-10-15T00:35:27.283Z,988.43
2022-10-15T00:35:37.545Z,988.43
2022-10-15T00:35:47.807Z,988.43
2022-10-15T00:35:58.069Z,988.42
2022-10-15T00:36:08.334Z,988.42
2022-10-15T00:36:18.593Z,988.42
2022-10-15T00:36:28.855Z,988.42
2022-10-15T00:36:39.117Z,988.41
2022-10-15T00:36:49.392Z,988.40
2022-10-15T00:36:59.655Z,988.40
2022-10-15T00:37:09.918Z,988.40
2022-10-15T00:37:20.192Z,988.40
2022-10-15T00:37:30.576Z,988.39
2022-10-15T00:37:40.816Z,988.38
2022-10-15T00:37:51.082Z,988.38
2022-10-15T00:38:01.342Z,988.38
2022-10-15T00:38:11.605Z,988.38
2022-10-15T00:38:21.865Z,988.38
2022-10-15T00:38:32.128Z,988.38
2022-10-15T00:38:42.389Z,988.38
2022-10-15T00:38:52.652Z,988.38
2022-10-15T00:39:02.930Z,988.37
2022-10-15T00:39:13.179Z,988.37
2022-10-15T00:39:23.436Z,988.37
2022-10-15T00:39:33.698Z,988.37
2022-10-15T00:39:43.960Z,988.36
2022-10-15T00:39:54.293Z,988.36
2022-10-15T00:40:04.528Z,988.36
2022-10-15T00:40:14.790Z,988.35
2022-10-15T00:40:25.058Z,988.34
2022-10-15T00:40:35.314Z,988.34
2022-10-15T00:40:45.577Z,988.34
2022-10-15T00:40:55.840Z,988.34
2022-10-15T00:41:06.105Z,988.34
2022-10-15T00:41:16.365Z,988.33
2022-10-15T00:41:26.626Z,988.33
2022-10-15T00:41:36.888Z,988.32
2022-10-15T00:41:47.153Z,988.32
2022-10-15T00:41:57.413Z,988.32
2022-10-15T00:42:07.676Z,988.32
2022-10-15T00:42:17.951Z,988.31
2022-10-15T00:42:28.213Z,988.31
2022-10-15T00:42:38.477Z,988.30
2022-10-15T00:42:48.738Z,988.30
2022-10-15T00:42:59.001Z,988.30
2022-10-15T00:43:09.269Z,988.30
2022-10-15T00:43:19.523Z,988.30
2022-10-15T00:43:29.786Z,988.30
2022-10-15T00:43:40.049Z,988.29
2022-10-15T00:43:50.309Z,988.29
2022-10-15T00:44:00.571Z,988.29
2022-10-15T00:44:10.834Z,988.28
2022-10-15T00:44:21.097Z,988.28
2022-10-15T00:44:31.359Z,988.28
2022-10-15T00:44:41.623Z,988.28
2022-10-15T00:44:51.883Z,988.28
2022-10-15T00:45:02.145Z,988.28
2022-10-15T00:45:12.407Z,988.27
2022-10-15T00:45:22.672Z,988.27
2022-10-15T00:45:32.932Z,988.27
2022-10-15T00:45:43.192Z,988.27
2022-10-15T00:45:53.464Z,988.27
2022-10-15T00:46:03.720Z,988.27
2022-10-15T00:46:13.979Z,988.27
2022-10-15T00:46:24.240Z,988.27
2022-10-15T00:46:34.505Z,988.28
2022-10-15T00:46:44.766Z,988.28
2022-10-15T00:46:55.037Z,988.28
2022-10-15T00:47:05.293Z,988.28
2022-10-15T00:47:15.571Z,988.29
2022-10-15T00:47:25.832Z,988.29
2022-10-15T00:47:36.094Z,988.29
2022-10-15T00:47:46.355Z,988.29
2022-10-15T00:47:56.619Z,988.29
2022-10-15T00:48:06.881Z,988.29
2022-10-15T00:48:17.144Z,988.29
2022-10-15T00:48:27.405Z,988.30
2022-10-15T00:48:37.670Z,988.30
2022-10-15T00:48:47.929Z,988.30
2022-10-15T00:48:58.271Z,988.30
2022-10-15T00:49:08.538Z,988.30
2022-10-15T00:49:18.793Z,988.30
2022-10-15T00:49:29.054Z,988.30
2022-10-15T00:49:39.342Z,988.30
2022-10-15T00:49:49.577Z,988.31
2022-10-15T00:49:59.841Z,988.30
2022-10-15T00:50:10.105Z,988.31
2022-10-15T00:50:20.364Z,988.31
2022-10-15T00:50:30.626Z,988.31
2022-10-15T00:50:40.887Z,988.32
2022-10-15T00:50:51.158Z,988.32
2022-10-15T00:51:01.413Z,988.32
2022-10-15T00:51:11.673Z,988.32
2022-10-15T00:51:21.936Z,988.33
2022-10-15T00:51:32.197Z,988.33
2022-10-15T00:51:42.461Z,988.33
2022-10-15T00:51:52.723Z,988.33
2022-10-15T00:52:02.987Z,988.34
2022-10-15T00:52:13.250Z,988.34
2022-10-15T00:52:23.728Z,988.34
2022-10-15T00:52:33.939Z,988.35
2022-10-15T00:52:44.182Z,988.35
2022-10-15T00:52:54.443Z,988.35
2022-10-15T00:53:04.705Z,988.35
2022-10-15T00:53:14.967Z,988.36
2022-10-15T00:53:25.230Z,988.36
2022-10-15T00:53:35.490Z,988.37
2022-10-15T00:53:45.755Z,988.37
2022-10-15T00:53:56.017Z,988.37
2022-10-15T00:54:06.279Z,988.37
2022-10-15T00:54:16.543Z,988.38
2022-10-15T00:54:26.804Z,988.37
2022-10-15T00:54:37.066Z,988.38
2022-10-15T00:54:47.328Z,988.38
2022-10-15T00:54:57.589Z,988.38
2022-10-15T00:55:07.852Z,988.38
2022-10-15T00:55:18.114Z,988.39
2022-10-15T00:55:28.378Z,988.39
2022-10-15T00:55:38.637Z,988.39
2022-10-15T00:55:48.898Z,988.39
2022-10-15T00:55:59.162Z,988.39
2022-10-15T00:56:09.462Z,988.40
2022-10-15T00:56:19.686Z,988.40
2022-10-15T00:56:29.948Z,988.41
2022-10-15T00:56:40.209Z,988.41
2022-10-15T00:56:50.473Z,988.41
2022-10-15T00:57:00.735Z,988.42
2022-10-15T00:57:10.997Z,988.42
2022-10-15T00:57:21.277Z,988.42
2022-10-15T00:57:31.538Z,988.42
2022-10-15T00:57:41.801Z,988.43
2022-10-15T00:57:52.063Z,988.43
2022-10-15T00:58:02.395Z,988.43
2022-10-15T00:58:23.092Z,988.44
2022-10-15T00:58:33.348Z,988.44
2022-10-15T00:58:43.610Z,988.44
2022-10-15T00:58:53.875Z,988.44
2022-10-15T00:59:04.134Z,988.45
2022-10-15T00:59:14.397Z,988.45
2022-10-15T00:59:24.659Z,988.45
2022-10-15T00:59:34.921Z,988.46
2022-10-15T00:59:45.183Z,988.46
2022-10-15T00:59:55.450Z,988.46
2022-10-15T01:00:05.707Z,988.46
2022-10-15T01:00:15.969Z,988.46
2022-10-15T01:00:26.234Z,988.46
2022-10-15T01:00:36.497Z,988.46
2022-10-15T01:00:46.792Z,988.46
2022-10-15T01:00:57.115Z,988.47
2022-10-15T01:01:07.369Z,988.47
2022-10-15T01:01:17.626Z,988.46
2022-10-15T01:01:27.952Z,988.46
2022-10-15T01:01:38.229Z,988.46
2022-10-15T01:01:48.479Z,988.47
2022-10-15T01:01:58.742Z,988.46
2022-10-15T01:02:09.004Z,988.47
2022-10-15T01:02:19.281Z,988.47
2022-10-15T01:02:29.543Z,988.47
2022-10-15T01:02:39.806Z,988.47
2022-10-15T01:02:50.069Z,988.47
2022-10-15T01:03:00.330Z,988.47
2022-10-15T01:03:10.591Z,988.46
2022-10-15T01:03:20.856Z,988.46
2022-10-15T01:03:31.116Z,988.46
2022-10-15T01:03:41.380Z,988.46
2022-10-15T01:03:51.641Z,988.46
2022-10-15T01:04:01.903Z,988.46
2022-10-15T01:04:12.164Z,988.46
2022-10-15T01:04:22.426Z,988.46
2022-10-15T01:04:32.688Z,988.45
2022-10-15T01:04:42.951Z,988.45
2022-10-15T01:04:53.212Z,988.44
2022-10-15T01:05:03.476Z,988.44
2022-10-15T01:05:13.736Z,988.44
2022-10-15T01:05:24.001Z,988.44
2022-10-15T01:05:34.262Z,988.45
2022-10-15T01:05:44.525Z,988.44
2022-10-15T01:05:54.788Z,988.44
2022-10-15T01:06:05.049Z,988.44
2022-10-15T01:06:15.311Z,988.44
2022-10-15T01:06:25.575Z,988.44
2022-10-15T01:06:35.836Z,988.44
2022-10-15T01:06:46.100Z,988.44
2022-10-15T01:06:56.372Z,988.44
2022-10-15T01:07:06.679Z,988.45
2022-10-15T01:07:27.162Z,988.45
2022-10-15T01:07:37.443Z,988.45
2022-10-15T01:07:47.685Z,988.45
2022-10-15T01:07:57.948Z,988.45
2022-10-15T01:08:08.208Z,988.45
2022-10-15T01:08:18.469Z,988.44
2022-10-15T01:08:28.736Z,988.44
2022-10-15T01:08:38.995Z,988.44
2022-10-15T01:08:49.256Z,988.44
2022-10-15T01:08:59.518Z,988.44
2022-10-15T01:09:09.781Z,988.44
2022-10-15T01:09:20.042Z,988.44
2022-10-15T01:09:30.305Z,988.44
2022-10-15T01:09:40.566Z,988.43
2022-10-15T01:09:50.828Z,988.43
2022-10-15T01:10:01.089Z,988.43
2022-10-15T01:10:11.352Z,988.43
2022-10-15T01:10:21.612Z,988.42
2022-10-15T01:10:31.876Z,988.42
2022-10-15T01:10:42.138Z,988.42
2022-10-15T01:10:52.400Z,988.42
2022-10-15T01:11:02.667Z,988.42
2022-10-15T01:11:12.925Z,988.42
2022-10-15T01:11:23.186Z,988.42
2022-10-15T01:11:33.451Z,988.42
2022-10-15T01:11:43.710Z,988.42
2022-10-15T01:11:53.974Z,988.42
2022-10-15T01:12:04.242Z,988.42
2022-10-15T01:12:14.500Z,988.42
2022-10-15T01:12:25.061Z,988.42
2022-10-15T01:12:35.143Z,988.43
2022-10-15T01:12:45.405Z,988.43
2022-10-15T01:12:55.669Z,988.43
2022-10-15T01:13:05.929Z,988.43
2022-10-15T01:13:16.193Z,988.43
2022-10-15T01:13:26.452Z,988.43
2022-10-15T01:13:36.714Z,988.43
2022-10-15T01:13:46.975Z,988.43
2022-10-15T01:13:57.238Z,988.43
2022-10-15T01:14:07.501Z,988.43
2022-10-15T01:14:17.762Z,988.43
2022-10-15T01:14:28.025Z,988.43
2022-10-15T01:14:38.297Z,988.42
2022-10-15T01:14:48.559Z,988.43
2022-10-15T01:14:58.820Z,988.43
2022-10-15T01:15:09.081Z,988.43
2022-10-15T01:15:19.345Z,988.43
2022-10-15T01:15:29.604Z,988.42
2022-10-15T01:15:39.867Z,988.42
2022-10-15T01:15:50.128Z,988.42
2022-10-15T01:16:00.425Z,988.42
2022-10-15T01:16:10.667Z,988.42
2022-10-15T01:16:20.944Z,988.42
2022-10-15T01:16:31.205Z,988.42
2022-10-15T01:16:41.467Z,988.42
2022-10-15T01:16:51.729Z,988.42
2022-10-15T01:17:01.994Z,988.41
2022-10-15T01:17:12.255Z,988.41
2022-10-15T01:17:22.978Z,988.41
2022-10-15T01:17:32.922Z,988.41
2022-10-15T01:17:43.186Z,988.41
2022-10-15T01:17:53.447Z,988.41
2022-10-15T01:18:03.713Z,988.41
2022-10-15T01:18:13.973Z,988.41
2022-10-15T01:18:24.235Z,988.41
2022-10-15T01:18:34.498Z,988.42
2022-10-15T01:18:44.758Z,988.42
2022-10-15T01:18:55.019Z,988.41
2022-10-15T01:19:05.282Z,988.42
2022-10-15T01:19:15.543Z,988.42
2022-10-15T01:19:25.807Z,988.43
2022-10-15T01:19:36.067Z,988.43
2022-10-15T01:19:46.330Z,988.43
2022-10-15T01:19:56.591Z,988.43
2022-10-15T01:20:06.860Z,988.43
2022-10-15T01:20:17.118Z,988.43
2022-10-15T01:20:27.378Z,988.44
2022-10-15T01:20:37.642Z,988.44
2022-10-15T01:20:47.904Z,988.44
2022-10-15T01:20:58.163Z,988.44
2022-10-15T01:21:08.425Z,988.44
2022-10-15T01:21:18.687Z,988.44
2022-10-15T01:21:28.952Z,988.44
2022-10-15T01:21:39.212Z,988.45
2022-10-15T01:21:49.478Z,988.45
2022-10-15T01:21:59.749Z,988.45
2022-10-15T01:22:10.013Z,988.45
2022-10-15T01:22:20.275Z,988.45
2022-10-15T01:22:30.547Z,988.45
2022-10-15T01:22:40.830Z,988.45
2022-10-15T01:22:51.071Z,988.45
2022-10-15T01:23:01.333Z,988.46
2022-10-15T01:23:11.596Z,988.46
2022-10-15T01:23:25.124Z,988.46
2022-10-15T01:23:32.132Z,988.46
2022-10-15T01:23:42.391Z,988.46
2022-10-15T01:23:52.654Z,988.46
2022-10-15T01:24:02.915Z,988.46
2022-10-15T01:24:13.182Z,988.46
2022-10-15T01:24:23.445Z,988.46
2022-10-15T01:24:33.704Z,988.46
2022-10-15T01:24:43.972Z,988.46
2022-10-15T01:24:54.229Z,988.46
2022-10-15T01:25:04.538Z,988.46
2022-10-15T01:25:14.916Z,988.46
2022-10-15T01:25:25.156Z,988.46
2022-10-15T01:25:35.417Z,988.46
2022-10-15T01:25:45.678Z,988.46
2022-10-15T01:25:55.941Z,988.46
2022-10-15T01:26:06.201Z,988.45
2022-10-15T01:26:16.463Z,988.45
2022-10-15T01:26:26.725Z,988.45
2022-10-15T01:26:36.987Z,988.45
2022-10-15T01:26:47.248Z,988.45
2022-10-15T01:26:57.510Z,988.45
2022-10-15T01:27:07.773Z,988.45
2022-10-15T01:27:18.034Z,988.44
2022-10-15T01:27:28.311Z,988.44
2022-10-15T01:27:38.574Z,988.44
2022-10-15T01:27:48.837Z,988.43
2022-10-15T01:27:59.102Z,988.43
2022-10-15T01:28:09.376Z,988.43
2022-10-15T01:28:19.703Z,988.42
2022-10-15T01:28:30.100Z,988.42
2022-10-15T01:28:40.449Z,988.42
2022-10-15T01:28:50.733Z,988.42
2022-10-15T01:29:01.014Z,988.41
2022-10-15T01:29:11.248Z,988.41
2022-10-15T01:29:21.508Z,988.40
2022-10-15T01:29:31.772Z,988.40
2022-10-15T01:29:42.034Z,988.39
2022-10-15T01:29:52.297Z,988.39
2022-10-15T01:30:02.562Z,988.40
2022-10-15T01:30:12.822Z,988.40
2022-10-15T01:30:23.083Z,988.40
2022-10-15T01:30:33.349Z,988.40
2022-10-15T01:30:43.608Z,988.40
2022-10-15T01:30:53.872Z,988.40
2022-10-15T01:31:04.133Z,988.40
2022-10-15T01:31:14.397Z,988.40
2022-10-15T01:31:24.657Z,988.40
2022-10-15T01:31:34.920Z,988.40
2022-10-15T01:31:45.181Z,988.40
2022-10-15T01:31:55.443Z,988.41
2022-10-15T01:32:05.704Z,988.40
2022-10-15T01:32:15.967Z,988.41
2022-10-15T01:32:26.241Z,988.41
2022-10-15T01:32:36.504Z,988.41
2022-10-15T01:32:46.768Z,988.41
2022-10-15T01:32:57.047Z,988.42
2022-10-15T01:33:07.290Z,988.42
2022-10-15T01:33:17.553Z,988.42
2022-10-15T01:33:27.814Z,988.42
2022-10-15T01:33:38.076Z,988.42
2022-10-15T01:33:48.338Z,988.43
2022-10-15T01:33:58.601Z,988.43
2022-10-15T01:34:08.942Z,988.43
2022-10-15T01:34:29.415Z,988.43
2022-10-15T01:34:39.674Z,988.44
2022-10-15T01:34:49.934Z,988.43
2022-10-15T01:35:00.272Z,988.43
2022-10-15T01:35:10.509Z,988.43
2022-10-15T01:35:20.770Z,988.43
2022-10-15T01:35:31.032Z,988.44
2022-10-15T01:35:41.296Z,988.44
2022-10-15T01:35:51.558Z,988.44
2022-10-15T01:36:04.100Z,988.44
2022-10-15T01:36:12.094Z,988.44
2022-10-15T01:36:22.354Z,988.43
2022-10-15T01:36:32.613Z,988.43
2022-10-15T01:36:42.881Z,988.42
2022-10-15T01:36:53.142Z,988.42
2022-10-15T01:37:03.408Z,988.42
2022-10-15T01:37:13.662Z,988.42
2022-10-15T01:37:24.274Z,988.41
2022-10-15T01:37:34.211Z,988.41
2022-10-15T01:37:44.548Z,988.40
2022-10-15T01:37:54.752Z,988.39
2022-10-15T01:38:05.015Z,988.39
2022-10-15T01:38:15.275Z,988.38
2022-10-15T01:38:25.537Z,988.38
2022-10-15T01:38:35.802Z,988.37
2022-10-15T01:38:46.082Z,988.38
2022-10-15T01:38:56.353Z,988.37
2022-10-15T01:39:06.616Z,988.37
2022-10-15T01:39:16.878Z,988.37
2022-10-15T01:39:27.139Z,988.36
2022-10-15T01:39:37.399Z,988.36
2022-10-15T01:39:47.669Z,988.35
2022-10-15T01:39:57.943Z,988.35
2022-10-15T01:40:08.207Z,988.34
2022-10-15T01:40:18.467Z,988.34
2022-10-15T01:40:28.730Z,988.33
2022-10-15T01:40:38.994Z,988.34
2022-10-15T01:40:49.260Z,988.33
2022-10-15T01:40:59.518Z,988.33
2022-10-15T01:41:09.782Z,988.33
2022-10-15T01:41:20.040Z,988.32
2022-10-15T01:41:30.303Z,988.32
2022-10-15T01:41:40.563Z,988.33
2022-10-15T01:41:50.826Z,988.33
2022-10-15T01:42:01.086Z,988.33
2022-10-15T01:42:11.350Z,988.33
2022-10-15T01:42:21.611Z,988.33
2022-10-15T01:42:31.886Z,988.34
2022-10-15T01:42:42.147Z,988.35
2022-10-15T01:42:52.411Z,988.35
2022-10-15T01:43:02.672Z,988.35
2022-10-15T01:43:13.011Z,988.36
2022-10-15T01:43:33.704Z,988.38
2022-10-15T01:43:43.964Z,988.38
2022-10-15T01:43:54.227Z,988.38
2022-10-15T01:44:04.487Z,988.39
2022-10-15T01:44:14.751Z,988.40
2022-10-15T01:44:25.011Z,988.40
2022-10-15T01:44:35.274Z,988.41
2022-10-15T01:44:45.536Z,988.41
2022-10-15T01:44:55.799Z,988.42
2022-10-15T01:45:06.060Z,988.42
2022-10-15T01:45:16.322Z,988.43
2022-10-15T01:45:26.583Z,988.44
2022-10-15T01:45:36.845Z,988.44
2022-10-15T01:45:47.107Z,988.44
2022-10-15T01:45:57.372Z,988.45
2022-10-15T01:46:07.630Z,988.45
2022-10-15T01:46:17.896Z,988.46
2022-10-15T01:46:28.158Z,988.45
2022-10-15T01:46:38.415Z,988.46
2022-10-15T01:46:48.676Z,988.46
2022-10-15T01:46:58.939Z,988.46
2022-10-15T01:47:09.199Z,988.46
2022-10-15T01:47:19.461Z,988.46
2022-10-15T01:47:29.733Z,988.46
2022-10-15T01:47:39.996Z,988.46
2022-10-15T01:47:50.257Z,988.46
2022-10-15T01:48:00.519Z,988.45
2022-10-15T01:48:10.781Z,988.45
2022-10-15T01:48:21.045Z,988.44
2022-10-15T01:48:31.307Z,988.44
2022-10-15T01:48:41.570Z,988.44
2022-10-15T01:48:51.830Z,988.43
2022-10-15T01:49:02.093Z,988.43
2022-10-15T01:49:12.362Z,988.43
2022-10-15T01:49:22.629Z,988.42
2022-10-15T01:49:32.901Z,988.42
2022-10-15T01:49:43.150Z,988.42
2022-10-15T01:49:53.412Z,988.41
2022-10-15T01:50:03.675Z,988.41
2022-10-15T01:50:13.936Z,988.41
2022-10-15T01:50:24.201Z,988.40
2022-10-15T01:50:34.459Z,988.40
2022-10-15T01:50:44.721Z,988.40
2022-10-15T01:50:54.984Z,988.40
2022-10-15T01:51:05.245Z,988.39
2022-10-15T01:51:15.510Z,988.40
2022-10-15T01:51:25.770Z,988.39
2022-10-15T01:51:36.033Z,988.40
2022-10-15T01:51:46.297Z,988.39
2022-10-15T01:51:56.557Z,988.39
2022-10-15T01:52:06.820Z,988.39
2022-10-15T01:52:17.161Z,988.39
2022-10-15T01:52:27.495Z,988.39
2022-10-15T01:52:37.741Z,988.39
2022-10-15T01:52:48.119Z,988.39
2022-10-15T01:52:58.321Z,988.40
2022-10-15T01:53:08.584Z,988.40
2022-10-15T01:53:18.844Z,988.40
2022-10-15T01:53:29.107Z,988.40
2022-10-15T01:53:39.380Z,988.40
2022-10-15T01:53:49.631Z,988.41
2022-10-15T01:53:59.902Z,988.41
2022-10-15T01:54:10.165Z,988.41
2022-10-15T01:54:20.427Z,988.41
2022-10-15T01:54:30.687Z,988.41
2022-10-15T01:54:40.949Z,988.42
2022-10-15T01:54:51.212Z,988.41
2022-10-15T01:55:01.474Z,988.42
2022-10-15T01:55:11.736Z,988.42
2022-10-15T01:55:21.996Z,988.42
2022-10-15T01:55:32.259Z,988.42
2022-10-15T01:55:42.520Z,988.42
2022-10-15T01:55:52.783Z,988.42
2022-10-15T01:56:03.043Z,988.41
2022-10-15T01:56:13.306Z,988.41
2022-10-15T01:56:23.570Z,988.41
2022-10-15T01:56:33.831Z,988.40
2022-10-15T01:56:44.094Z,988.40
2022-10-15T01:56:54.355Z,988.39
2022-10-15T01:57:04.620Z,988.38
2022-10-15T01:57:14.880Z,988.38
2022-10-15T01:57:25.710Z,988.37
2022-10-15T01:57:35.453Z,988.37
2022-10-15T01:57:45.712Z,988.36
2022-10-15T01:57:55.976Z,988.35
2022-10-15T01:58:06.236Z,988.35
2022-10-15T01:58:16.500Z,988.34
2022-10-15T01:58:26.820Z,988.33
2022-10-15T01:58:37.064Z,988.33
2022-10-15T01:58:47.324Z,988.32
2022-10-15T01:58:57.587Z,988.32
2022-10-15T01:59:07.848Z,988.31
2022-10-15T01:59:18.110Z,988.31
2022-10-15T01:59:28.371Z,988.31
2022-10-15T01:59:38.634Z,988.30
2022-10-15T01:59:48.898Z,988.30
2022-10-15T01:59:59.158Z,988.30
2022-10-15T02:00:09.424Z,988.30
2022-10-15T02:00:19.681Z,988.30
2022-10-15T02:00:29.943Z,988.30
2022-10-15T02:00:40.256Z,988.30
2022-10-15T02:00:50.570Z,988.30
2022-10-15T02:01:00.854Z,988.30
2022-10-15T02:01:11.129Z,988.31
2022-10-15T02:01:21.400Z,988.31
2022-10-15T02:01:31.816Z,988.31
2022-10-15T02:01:53.962Z,988.31
2022-10-15T02:02:02.528Z,988.31
2022-10-15T02:02:12.806Z,988.31
2022-10-15T02:02:23.365Z,988.31
2022-10-15T02:02:33.461Z,988.32
2022-10-15T02:02:43.724Z,988.32
2022-10-15T02:02:53.986Z,988.32
2022-10-15T02:03:04.250Z,988.31
2022-10-15T02:03:14.510Z,988.31
2022-10-15T02:03:24.772Z,988.31
2022-10-15T02:03:35.035Z,988.30
2022-10-15T02:03:45.298Z,988.30
2022-10-15T02:03:55.560Z,988.30
2022-10-15T02:04:05.823Z,988.29
2022-10-15T02:04:16.085Z,988.29
2022-10-15T02:04:26.346Z,988.28
2022-10-15T02:04:36.617Z,988.28
2022-10-15T02:04:46.880Z,988.28
2022-10-15T02:04:57.143Z,988.27
2022-10-15T02:05:07.406Z,988.26
2022-10-15T02:05:17.666Z,988.26
2022-10-15T02:05:27.932Z,988.26
2022-10-15T02:05:38.194Z,988.25
2022-10-15T02:05:48.452Z,988.25
2022-10-15T02:05:58.713Z,988.25
2022-10-15T02:06:08.979Z,988.24
2022-10-15T02:06:19.239Z,988.24
2022-10-15T02:06:29.502Z,988.24
2022-10-15T02:06:39.764Z,988.24
2022-10-15T02:06:50.039Z,988.24
2022-10-15T02:07:00.296Z,988.25
2022-10-15T02:07:10.554Z,988.25
2022-10-15T02:07:20.814Z,988.25
2022-10-15T02:07:31.096Z,988.25
2022-10-15T02:07:41.354Z,988.25
2022-10-15T02:07:51.637Z,988.26
2022-10-15T02:08:01.878Z,988.26
2022-10-15T02:08:12.142Z,988.27
2022-10-15T02:08:22.404Z,988.27
2022-10-15T02:08:32.669Z,988.27
2022-10-15T02:08:42.942Z,988.28
2022-10-15T02:08:53.194Z,988.28
2022-10-15T02:09:03.457Z,988.28